Time;durP1;ratioP1;P1;durP2;ratioP2;P2;SDS_P1;SDS_P2;PMS_P1;PMS_P2;Temp;Humidity;BMP_temperature;BMP_pressure;BME280_temperature;BME280_humidity;BME280_pressure;Samples;Min_cycle;Max_cycle;Signal;HPM_P1;HPM_P2
2021/12/16 00:31:27;;;;;;;183.85;25.20;;;7.70;96.20;;;;;;6165759;23;20074;-77
2021/12/16 00:34:04;;;;;;;139.90;25.23;;;7.70;96.20;;;;;;6165871;23;20034;-78
2021/12/16 00:36:37;;;;;;;219.45;26.48;;;7.70;96.20;;;;;;6167203;23;20026;-77
2021/12/16 00:39:08;;;;;;;346.15;31.63;;;7.70;96.10;;;;;;6167269;23;20030;-77
2021/12/16 00:41:36;;;;;;;242.95;26.92;;;7.70;96.10;;;;;;6165335;23;20018;-78
2021/12/16 00:46:56;;;;;;;327.13;27.73;;;7.60;96.10;;;;;;6164228;23;20113;-77
2021/12/16 00:49:43;;;;;;;210.55;26.30;;;7.70;96.10;;;;;;6165858;23;20098;-78
2021/12/16 00:55:10;;;;;;;211.32;27.05;;;7.60;96.10;;;;;;6165661;23;20969;-78
2021/12/16 00:57:38;;;;;;;202.40;27.30;;;7.60;96.10;;;;;;6165633;23;20029;-77
2021/12/16 01:00:07;;;;;;;203.90;27.40;;;7.60;96.20;;;;;;6141094;23;20026;-78
2021/12/16 01:03:01;;;;;;;157.65;28.23;;;7.60;96.20;;;;;;6165097;23;20382;-78
2021/12/16 01:33:43;;;;;;;315.73;27.42;;;7.60;96.20;;;;;;6166044;23;20803;-78
2021/12/16 01:42:01;;;;;;;202.90;25.90;;;7.50;96.20;;;;;;6165788;23;20911;-79
2021/12/16 01:49:49;;;;;;;274.45;29.15;;;7.50;96.20;;;;;;6166223;23;20841;-79
2021/12/16 01:52:50;;;;;;;189.70;25.38;;;7.40;96.30;;;;;;6166335;23;20124;-77
2021/12/16 01:55:37;;;;;;;214.00;26.05;;;7.50;96.30;;;;;;6167119;23;20116;-78
2021/12/16 01:58:28;;;;;;;188.02;27.75;;;7.50;96.30;;;;;;6139999;23;20026;-78
2021/12/16 02:01:08;;;;;;;122.63;24.27;;;7.50;96.20;;;;;;6168985;23;20018;-77
2021/12/16 02:03:46;;;;;;;236.00;28.45;;;7.50;96.20;;;;;;6170101;23;20078;-78
2021/12/16 02:08:54;;;;;;;128.30;22.95;;;7.50;96.20;;;;;;6165201;23;20619;-77
2021/12/16 02:28:17;;;;;;;122.65;22.85;;;7.30;96.00;;;;;;6170352;23;20014;-78
2021/12/16 02:38:57;;;;;;;328.90;30.15;;;7.20;95.70;;;;;;6168388;23;20041;-78
2021/12/16 02:41:26;;;;;;;175.88;25.33;;;7.10;95.70;;;;;;6166877;23;20104;-78
2021/12/16 02:44:09;;;;;;;77.75;22.52;;;7.10;95.70;;;;;;6162289;23;20041;-77
2021/12/16 02:49:24;;;;;;;86.57;21.77;;;7.10;95.80;;;;;;6165503;23;20037;-77
2021/12/16 02:51:51;;;;;;;87.57;21.63;;;7.00;95.80;;;;;;6166524;23;20030;-78
2021/12/16 02:54:20;;;;;;;107.38;24.55;;;7.00;95.70;;;;;;6165550;23;20018;-78
2021/12/16 02:56:47;;;;;;;205.50;27.20;;;7.00;95.80;;;;;;6165030;23;20467;-78
2021/12/16 02:59:19;;;;;;;93.93;21.67;;;7.00;95.70;;;;;;6161773;23;20052;-77
2021/12/16 03:01:52;;;;;;;90.10;23.02;;;6.90;95.70;;;;;;6157842;23;20032;-79
2021/12/16 03:04:21;;;;;;;75.72;21.02;;;6.90;95.60;;;;;;6134162;23;20028;-77
2021/12/16 03:06:52;;;;;;;85.95;24.27;;;6.80;95.70;;;;;;6159032;23;20030;-78
2021/12/16 03:09:46;;;;;;;108.60;24.80;;;6.80;95.70;;;;;;6159941;23;20030;-78
2021/12/16 03:14:47;;;;;;;133.57;26.75;;;6.80;95.60;;;;;;6158486;23;20024;-78
2021/12/16 03:17:27;;;;;;;104.15;24.45;;;6.70;95.80;;;;;;6159631;23;21355;-78
2021/12/16 03:20:07;;;;;;;294.13;33.55;;;6.70;95.70;;;;;;6159401;23;20069;-78
2021/12/16 03:22:52;;;;;;;86.80;23.58;;;6.60;95.80;;;;;;6159426;23;20048;-78
2021/12/16 03:25:45;;;;;;;132.00;26.33;;;6.60;95.90;;;;;;6158409;23;20108;-78
2021/12/16 03:33:34;;;;;;;186.52;27.80;;;6.50;95.70;;;;;;6158406;23;20165;-78
2021/12/16 03:36:25;;;;;;;332.02;39.22;;;6.50;95.90;;;;;;6157002;23;20455;-78
2021/12/16 03:39:01;;;;;;;263.00;32.65;;;6.50;96.10;;;;;;6158218;23;20029;-78
2021/12/16 03:41:30;;;;;;;201.82;30.85;;;6.60;96.40;;;;;;6157467;23;20014;-78
2021/12/16 03:43:59;;;;;;;262.80;33.03;;;6.60;96.50;;;;;;6157296;23;20101;-78
2021/12/16 03:46:40;;;;;;;226.32;30.55;;;6.70;96.50;;;;;;6157207;23;20768;-78
2021/12/16 03:49:25;;;;;;;313.23;29.73;;;6.70;96.60;;;;;;6157333;23;20026;-79
2021/12/16 03:51:54;;;;;;;325.20;33.25;;;6.80;96.80;;;;;;6157696;23;20125;-77
2021/12/16 03:54:27;;;;;;;453.58;36.40;;;6.80;96.80;;;;;;6154946;23;20046;-78
2021/12/16 03:56:55;;;;;;;304.38;31.17;;;6.90;96.80;;;;;;6131921;23;20030;-78
2021/12/16 03:59:26;;;;;;;455.48;39.60;;;6.90;96.90;;;;;;6156944;23;20025;-78
2021/12/16 04:01:55;;;;;;;223.23;29.38;;;6.90;97.00;;;;;;6131650;23;20113;-78
2021/12/16 04:04:22;;;;;;;396.45;33.08;;;7.00;97.00;;;;;;6157307;23;20576;-78
2021/12/16 04:06:49;;;;;;;284.45;30.25;;;7.00;97.00;;;;;;6156497;23;20026;-78
2021/12/16 04:09:21;;;;;;;260.73;29.88;;;7.00;97.00;;;;;;6157709;23;20018;-78
2021/12/16 04:12:07;;;;;;;564.65;43.67;;;7.00;97.00;;;;;;6128717;23;20069;-78
2021/12/16 04:14:38;;;;;;;282.80;30.33;;;7.00;97.10;;;;;;6156640;23;20032;-78
2021/12/16 04:17:08;;;;;;;255.75;33.55;;;7.00;96.90;;;;;;6156942;23;20032;-78
2021/12/16 04:19:35;;;;;;;490.58;38.40;;;7.00;97.00;;;;;;6156398;23;20061;-78
2021/12/16 04:22:11;;;;;;;220.68;28.23;;;7.00;97.00;;;;;;6156488;23;20093;-77
2021/12/16 04:24:39;;;;;;;260.40;32.40;;;7.00;97.00;;;;;;6130902;23;20024;-78
2021/12/16 04:27:07;;;;;;;259.20;29.42;;;7.00;96.90;;;;;;6155422;23;20025;-78
2021/12/16 04:29:36;;;;;;;267.30;30.80;;;7.00;96.90;;;;;;6157034;23;20014;-78
2021/12/16 04:32:04;;;;;;;173.38;25.25;;;7.00;97.00;;;;;;6156685;23;20161;-78
2021/12/16 04:34:30;;;;;;;224.02;27.73;;;7.00;96.90;;;;;;6155663;23;20025;-78
2021/12/16 04:36:58;;;;;;;216.75;25.05;;;7.00;96.90;;;;;;6155826;23;20093;-77
2021/12/16 04:39:28;;;;;;;179.45;25.23;;;7.00;96.90;;;;;;6155981;23;20020;-78
2021/12/16 04:41:56;;;;;;;163.25;25.35;;;7.00;96.90;;;;;;6156426;23;20037;-78
2021/12/16 04:44:25;;;;;;;266.80;31.08;;;6.90;96.80;;;;;;6156499;23;20879;-78
2021/12/16 04:46:53;;;;;;;336.95;31.75;;;7.00;96.90;;;;;;6155425;23;20050;-78
2021/12/16 04:49:20;;;;;;;237.50;26.00;;;7.00;96.90;;;;;;6156817;23;20104;-78
2021/12/16 04:51:51;;;;;;;218.10;27.17;;;7.00;96.90;;;;;;6156989;23;20039;-78
2021/12/16 04:54:24;;;;;;;149.90;23.75;;;7.00;96.90;;;;;;6156627;23;20089;-78
2021/12/16 04:56:52;;;;;;;181.95;23.58;;;6.90;96.90;;;;;;6156201;23;20026;-78
2021/12/16 04:59:21;;;;;;;283.50;28.23;;;7.00;96.90;;;;;;6153806;23;20032;-79
2021/12/16 05:01:59;;;;;;;169.10;24.30;;;7.00;96.80;;;;;;6129906;23;20053;-78
2021/12/16 05:04:26;;;;;;;147.23;23.05;;;6.90;96.80;;;;;;6157366;23;20077;-78
2021/12/16 05:06:54;;;;;;;264.08;28.65;;;6.90;96.70;;;;;;6156551;23;20756;-78
2021/12/16 05:12:13;;;;;;;141.85;23.58;;;6.80;96.70;;;;;;6158221;23;20026;-78
2021/12/16 05:14:42;;;;;;;168.05;22.65;;;6.90;96.80;;;;;;6158404;23;20029;-78
2021/12/16 05:17:22;;;;;;;350.27;31.52;;;6.80;96.90;;;;;;6157549;23;20366;-78
2021/12/16 05:19:51;;;;;;;175.68;21.85;;;6.80;96.80;;;;;;6158469;23;20431;-77
2021/12/16 05:25:16;;;;;;;146.40;24.10;;;6.80;96.80;;;;;;6157056;23;20101;-78
2021/12/16 05:27:43;;;;;;;221.02;23.63;;;6.80;96.90;;;;;;6157218;23;20026;-78
2021/12/16 05:30:10;;;;;;;107.07;20.83;;;6.80;96.80;;;;;;6156385;23;20022;-79
2021/12/16 05:32:40;;;;;;;139.95;21.73;;;6.80;96.70;;;;;;6156245;23;20085;-79
2021/12/16 05:35:08;;;;;;;147.70;20.95;;;6.80;96.70;;;;;;6155076;23;20109;-78
2021/12/16 05:37:34;;;;;;;124.25;22.52;;;6.80;96.70;;;;;;6156294;23;20359;-78
2021/12/16 05:40:02;;;;;;;295.58;28.58;;;6.80;96.70;;;;;;6155913;23;20022;-78
2021/12/16 05:42:28;;;;;;;211.10;24.38;;;6.70;96.60;;;;;;6129257;23;20106;-78
2021/12/16 05:44:55;;;;;;;191.15;23.30;;;6.70;96.50;;;;;;6155891;23;20022;-78
2021/12/16 05:47:22;;;;;;;340.67;28.65;;;6.60;96.60;;;;;;6129074;23;20026;-78
2021/12/16 05:49:52;;;;;;;103.45;19.05;;;6.60;96.50;;;;;;6129122;23;20057;-78
2021/12/16 05:52:21;;;;;;;158.27;21.45;;;6.60;96.60;;;;;;6154911;23;20132;-78
2021/12/16 05:54:51;;;;;;;116.25;18.08;;;6.60;96.60;;;;;;6155469;23;20419;-78
2021/12/16 05:57:20;;;;;;;274.08;25.77;;;6.50;96.50;;;;;;6155612;23;20036;-78
2021/12/16 05:59:48;;;;;;;140.77;18.83;;;6.50;96.60;;;;;;6129037;23;20028;-78
2021/12/16 06:02:15;;;;;;;166.23;19.88;;;6.50;96.40;;;;;;6156211;23;20040;-78
2021/12/16 06:04:41;;;;;;;110.25;18.30;;;6.50;96.60;;;;;;6155554;23;20117;-78
2021/12/16 06:07:09;;;;;;;118.75;18.98;;;6.40;96.50;;;;;;6155438;23;20030;-78
2021/12/16 06:09:35;;;;;;;136.18;19.13;;;6.50;96.50;;;;;;6155696;23;20097;-79
2021/12/16 06:12:02;;;;;;;146.00;19.52;;;6.50;96.50;;;;;;6156079;23;20777;-78
2021/12/16 06:28:05;;;;;;;124.80;17.88;;;6.30;96.50;;;;;;6156944;23;20022;-78
2021/12/16 06:30:36;;;;;;;290.40;23.17;;;6.30;96.40;;;;;;6128289;23;20057;-78
2021/12/16 06:33:06;;;;;;;252.23;21.65;;;6.30;96.40;;;;;;6127923;23;20215;-78
2021/12/16 06:35:35;;;;;;;230.20;22.67;;;6.30;96.40;;;;;;6101205;23;20479;-78
2021/12/16 06:38:07;;;;;;;264.42;22.67;;;6.30;96.30;;;;;;6101189;23;20054;-78
2021/12/16 06:40:36;;;;;;;184.60;19.20;;;6.30;96.30;;;;;;6126431;23;20026;-78
2021/12/16 06:43:05;;;;;;;306.58;26.27;;;6.20;96.30;;;;;;6126909;23;20019;-77
2021/12/16 06:45:44;;;;;;;222.18;20.48;;;6.20;96.30;;;;;;6126394;23;20033;-77
2021/12/16 06:48:19;;;;;;;123.60;17.42;;;6.20;96.20;;;;;;6125958;23;20023;-77
2021/12/16 06:50:57;;;;;;;179.43;19.35;;;6.20;96.30;;;;;;6124102;23;20030;-77
2021/12/16 06:53:44;;;;;;;164.52;19.05;;;6.20;96.20;;;;;;6127052;23;20053;-77
2021/12/16 06:56:22;;;;;;;73.70;15.85;;;6.10;96.20;;;;;;6124686;23;20025;-77
2021/12/16 06:59:07;;;;;;;153.38;18.75;;;6.10;96.20;;;;;;6127039;23;20723;-77
2021/12/16 07:01:40;;;;;;;92.97;16.52;;;6.10;96.20;;;;;;6100487;23;20078;-77
2021/12/16 07:04:13;;;;;;;115.20;17.33;;;6.00;96.10;;;;;;6125731;23;20057;-77
2021/12/16 07:06:41;;;;;;;82.30;16.80;;;6.00;96.10;;;;;;6100597;23;20849;-77
2021/12/16 07:09:15;;;;;;;122.45;17.33;;;6.00;96.00;;;;;;6126261;23;20030;-77
2021/12/16 07:11:44;;;;;;;189.57;17.80;;;5.90;96.00;;;;;;6126870;23;20085;-77
2021/12/16 07:14:33;;;;;;;106.20;16.27;;;5.90;96.00;;;;;;6126491;23;20899;-78
2021/12/16 07:17:09;;;;;;;129.75;15.38;;;5.90;96.00;;;;;;6127091;23;20105;-77
2021/12/16 07:19:39;;;;;;;81.07;14.73;;;5.90;96.00;;;;;;6126857;23;20034;-77
2021/12/16 07:22:08;;;;;;;132.48;17.08;;;5.80;95.90;;;;;;6125004;23;20029;-78
2021/12/16 07:24:47;;;;;;;210.15;17.77;;;5.80;96.00;;;;;;6126056;23;20030;-77
2021/12/16 07:27:23;;;;;;;107.60;15.73;;;5.80;96.00;;;;;;6126354;23;20558;-77
2021/12/16 07:29:50;;;;;;;118.97;14.60;;;5.80;96.00;;;;;;6146004;23;20101;-77
2021/12/16 07:32:16;;;;;;;201.02;20.90;;;5.80;96.00;;;;;;6130759;23;20860;-78
2021/12/16 07:34:45;;;;;;;49.13;13.63;;;5.80;96.10;;;;;;6155776;23;20026;-78
2021/12/16 07:37:19;;;;;;;64.30;15.38;;;5.70;96.00;;;;;;6157063;23;20105;-77
2021/12/16 07:39:51;;;;;;;55.15;14.52;;;5.70;96.00;;;;;;6156869;23;20116;-77
2021/12/16 07:42:28;;;;;;;42.92;12.95;;;5.70;96.00;;;;;;6155997;23;20030;-78
2021/12/16 07:44:55;;;;;;;53.05;13.10;;;5.70;96.10;;;;;;6155847;23;20053;-78
2021/12/16 07:47:22;;;;;;;155.88;19.83;;;5.70;96.00;;;;;;6156642;23;20104;-78
2021/12/16 07:49:51;;;;;;;183.23;21.23;;;5.70;95.90;;;;;;6129190;23;20025;-77
2021/12/16 07:52:20;;;;;;;95.10;16.23;;;5.60;96.00;;;;;;6130296;23;20808;-79
2021/12/16 07:54:50;;;;;;;70.88;14.68;;;5.60;96.20;;;;;;6156114;23;20778;-78
2021/12/16 07:57:20;;;;;;;180.63;19.30;;;5.60;96.20;;;;;;6156382;23;20927;-78
2021/12/16 07:59:49;;;;;;;105.63;15.00;;;5.60;96.20;;;;;;6157312;23;20108;-78
2021/12/16 08:02:16;;;;;;;90.47;12.80;;;5.50;96.20;;;;;;6156216;23;20113;-77
2021/12/16 08:04:45;;;;;;;45.13;12.65;;;5.50;96.20;;;;;;6154351;23;20045;-77
2021/12/16 08:07:18;;;;;;;311.75;21.00;;;5.50;96.10;;;;;;6154166;23;20025;-77
2021/12/16 08:09:51;;;;;;;306.00;22.05;;;5.50;96.10;;;;;;6132350;23;20355;-77
2021/12/16 08:12:18;;;;;;;158.02;15.50;;;5.50;96.10;;;;;;6156935;23;20025;-77
2021/12/16 08:14:46;;;;;;;75.55;11.77;;;5.50;96.10;;;;;;6155852;23;20069;-77
2021/12/16 08:17:15;;;;;;;326.02;21.10;;;5.50;96.10;;;;;;6154590;23;20014;-80
2021/12/16 08:19:45;;;;;;;173.38;12.40;;;5.50;96.00;;;;;;6130379;23;20049;-77
2021/12/16 08:22:13;;;;;;;175.88;15.15;;;5.50;96.00;;;;;;6155779;23;20022;-78
2021/12/16 08:24:41;;;;;;;272.48;17.83;;;5.50;96.00;;;;;;6156568;23;20740;-77
2021/12/16 08:27:08;;;;;;;65.28;11.10;;;5.50;95.90;;;;;;6156230;23;20161;-78
2021/12/16 08:29:38;;;;;;;124.53;12.75;;;5.50;95.80;;;;;;6143967;23;20101;-77
2021/12/16 08:32:07;;;;;;;112.70;14.07;;;5.50;95.80;;;;;;6127510;23;20077;-77
2021/12/16 08:34:42;;;;;;;90.78;12.63;;;5.40;95.70;;;;;;6129576;23;20085;-78
2021/12/16 08:37:09;;;;;;;120.38;12.90;;;5.30;95.60;;;;;;6157928;23;20030;-77
2021/12/16 08:39:37;;;;;;;100.68;13.18;;;5.30;95.50;;;;;;6131004;23;20025;-78
2021/12/16 08:42:07;;;;;;;100.28;12.50;;;5.30;95.60;;;;;;6156724;23;20101;-77
2021/12/16 08:44:33;;;;;;;45.88;10.48;;;5.20;95.30;;;;;;6131726;23;20112;-77
2021/12/16 08:47:23;;;;;;;192.75;16.65;;;5.20;95.50;;;;;;6155479;23;20515;-77
2021/12/16 08:49:53;;;;;;;191.05;14.73;;;5.20;95.60;;;;;;6155239;23;20029;-76
2021/12/16 08:52:22;;;;;;;99.15;13.35;;;5.20;95.70;;;;;;6156855;23;20026;-77
2021/12/16 08:54:52;;;;;;;257.48;17.50;;;5.30;95.70;;;;;;6131644;23;20010;-76
2021/12/16 08:57:24;;;;;;;222.43;15.93;;;5.40;95.80;;;;;;6131837;23;20497;-77
2021/12/16 08:59:52;;;;;;;125.15;12.57;;;5.30;95.40;;;;;;6156153;23;20236;-78
2021/12/16 09:02:20;;;;;;;229.70;15.40;;;5.30;95.50;;;;;;6156854;23;20026;-77
2021/12/16 09:04:51;;;;;;;142.45;15.30;;;5.30;95.50;;;;;;6157207;23;20447;-76
2021/12/16 09:07:22;;;;;;;186.63;18.02;;;5.30;95.60;;;;;;6159400;23;20765;-77
2021/12/16 09:09:52;;;;;;;153.43;18.48;;;5.40;95.80;;;;;;6156610;23;20052;-80
2021/12/16 09:13:05;;;;;;;72.03;14.32;;;5.50;95.90;;;;;;6157375;23;20026;-77
2021/12/16 09:15:13;;;;;;;80.13;14.00;;;5.50;95.80;;;;;;6146183;23;20144;-77
2021/12/16 09:17:46;;;;;;;42.25;12.63;;;5.50;95.80;;;;;;6156059;23;20081;-77
2021/12/16 09:20:14;;;;;;;36.28;12.77;;;5.60;95.90;;;;;;6158626;23;20029;-77
2021/12/16 09:22:41;;;;;;;28.88;11.88;;;5.70;95.90;;;;;;6156237;23;20054;-77
2021/12/16 09:25:09;;;;;;;43.25;12.63;;;5.80;95.80;;;;;;6128568;23;20068;-77
2021/12/16 09:27:36;;;;;;;18.60;11.50;;;5.90;95.70;;;;;;6157828;23;20022;-77
2021/12/16 09:30:09;;;;;;;22.63;11.50;;;6.00;95.50;;;;;;6157592;23;20022;-78
2021/12/16 09:32:36;;;;;;;20.40;10.85;;;6.10;95.60;;;;;;6156054;23;20101;-77
2021/12/16 09:35:05;;;;;;;25.08;10.50;;;6.30;95.60;;;;;;6130873;23;20399;-78
2021/12/16 09:37:32;;;;;;;18.40;10.90;;;6.50;95.40;;;;;;6157219;23;20025;-77
2021/12/16 09:40:01;;;;;;;20.20;12.18;;;6.60;95.00;;;;;;6130765;23;20029;-77
2021/12/16 09:42:28;;;;;;;18.48;10.00;;;6.90;95.00;;;;;;6130653;23;20093;-77
2021/12/16 09:44:55;;;;;;;16.38;9.63;;;7.20;94.90;;;;;;6156174;23;20060;-78
2021/12/16 09:47:23;;;;;;;14.10;9.02;;;7.40;94.60;;;;;;6156667;23;20036;-77
2021/12/16 09:49:50;;;;;;;13.05;8.77;;;7.60;93.30;;;;;;6154975;23;20092;-77
2021/12/16 09:52:17;;;;;;;14.00;9.30;;;7.80;93.20;;;;;;6157331;23;20087;-77
2021/12/16 09:54:46;;;;;;;16.67;8.43;;;8.10;93.00;;;;;;6156094;23;20742;-77
2021/12/16 09:57:15;;;;;;;16.00;9.85;;;8.40;93.10;;;;;;6157394;23;20442;-78
2021/12/16 09:59:51;;;;;;;15.48;9.27;;;8.50;92.00;;;;;;6157287;23;20085;-78
2021/12/16 10:02:25;;;;;;;;;;;8.80;93.20;;;;;;6157881;23;20022;-77
2021/12/16 10:04:52;;;;;;;14.05;9.55;;;9.00;93.40;;;;;;6155118;23;20371;-77
2021/12/16 10:07:27;;;;;;;14.68;9.63;;;9.20;92.80;;;;;;6156935;23;20025;-77
2021/12/16 10:09:59;;;;;;;17.77;9.70;;;9.40;92.50;;;;;;6156413;23;20049;-77
2021/12/16 10:12:35;;;;;;;16.30;9.60;;;9.50;92.60;;;;;;6132629;23;20976;-77
2021/12/16 10:17:20;;;;;;;17.23;9.80;;;9.60;91.60;;;;;;6158561;23;20060;-77
2021/12/16 10:17:50;;;;;;;22.75;11.40;;;9.70;91.20;;;;;;6156256;23;20022;-77
2021/12/16 10:20:26;;;;;;;21.27;11.30;;;9.80;90.90;;;;;;6159246;23;20025;-77
2021/12/16 10:23:22;;;;;;;25.08;10.88;;;9.90;90.80;;;;;;6157688;23;20026;-77
2021/12/16 10:25:52;;;;;;;23.25;11.85;;;9.80;89.80;;;;;;6132640;23;20067;-77
2021/12/16 10:28:25;;;;;;;25.88;12.75;;;9.90;91.00;;;;;;6158093;23;20126;-78
2021/12/16 10:30:54;;;;;;;26.85;11.68;;;10.10;91.40;;;;;;6160064;23;20022;-77
2021/12/16 10:33:28;;;;;;;25.65;11.73;;;10.20;91.00;;;;;;6159025;23;20128;-78
2021/12/16 10:35:57;;;;;;;;;;;10.30;90.40;;;;;;6160072;23;20034;-77
2021/12/16 10:38:25;;;;;;;25.20;11.80;;;10.30;90.00;;;;;;6133784;23;19916;-78
2021/12/16 10:40:55;;;;;;;26.80;12.00;;;10.40;90.70;;;;;;6159869;23;20462;-77
2021/12/16 10:44:05;;;;;;;26.83;11.68;;;10.50;90.30;;;;;;6160577;23;20022;-77
2021/12/16 10:46:37;;;;;;;24.38;10.80;;;10.60;90.10;;;;;;6144162;23;20030;-78
2021/12/16 10:49:14;;;;;;;25.75;11.43;;;10.70;89.00;;;;;;6134043;23;20026;-77
2021/12/16 10:51:55;;;;;;;29.50;11.80;;;10.80;89.60;;;;;;6134838;23;20060;-77
2021/12/16 10:54:24;;;;;;;24.00;11.43;;;10.90;89.20;;;;;;6159016;23;20097;-76
2021/12/16 10:56:58;;;;;;;23.40;11.10;;;11.00;89.50;;;;;;6158316;23;20041;-77
2021/12/16 10:59:39;;;;;;;22.30;11.63;;;11.00;88.90;;;;;;6161091;23;20093;-77
2021/12/16 11:02:17;;;;;;;27.40;10.45;;;11.10;89.10;;;;;;6161507;23;20543;-76
2021/12/16 11:05:31;;;;;;;24.55;10.50;;;11.00;88.50;;;;;;6162977;23;20109;-77
2021/12/16 11:07:59;;;;;;;22.10;11.15;;;11.00;88.70;;;;;;6110891;23;20022;-77
2021/12/16 11:10:33;;;;;;;18.58;10.32;;;11.00;88.70;;;;;;6163271;23;20106;-78
2021/12/16 11:13:03;;;;;;;20.35;10.05;;;11.00;88.80;;;;;;6163486;23;20045;-77
2021/12/16 11:15:48;;;;;;;21.52;11.45;;;10.90;88.70;;;;;;6133965;23;20030;-77
2021/12/16 11:18:21;;;;;;;21.08;10.15;;;10.80;88.60;;;;;;6157975;23;20308;-77
2021/12/16 11:21:00;;;;;;;19.80;10.90;;;10.70;88.30;;;;;;6155999;23;20022;-77
2021/12/16 11:23:30;;;;;;;22.08;11.10;;;10.70;88.50;;;;;;6159568;23;20040;-76
2021/12/16 11:26:11;;;;;;;22.88;10.23;;;10.80;89.20;;;;;;6157446;23;20030;-77
2021/12/16 11:28:46;;;;;;;24.73;10.93;;;10.80;88.40;;;;;;6158653;23;20038;-76
2021/12/16 11:31:14;;;;;;;23.85;11.57;;;10.70;88.30;;;;;;6156968;23;20024;-77
2021/12/16 11:33:50;;;;;;;23.58;11.55;;;10.70;88.00;;;;;;6131980;23;20068;-77
2021/12/16 11:36:21;;;;;;;22.35;11.32;;;10.70;88.60;;;;;;6157922;23;20521;-76
2021/12/16 11:38:51;;;;;;;20.10;11.43;;;10.60;88.10;;;;;;6156263;23;20766;-76
2021/12/16 11:41:26;;;;;;;21.40;10.68;;;10.60;88.40;;;;;;6155160;23;20048;-77
2021/12/16 11:43:58;;;;;;;20.33;10.95;;;10.50;88.40;;;;;;6131573;23;20036;-76
2021/12/16 11:46:32;;;;;;;21.45;11.00;;;10.50;88.60;;;;;;6131901;23;20454;-76
2021/12/16 11:49:27;;;;;;;18.83;11.18;;;10.50;88.70;;;;;;6157233;23;20085;-77
2021/12/16 11:52:07;;;;;;;21.07;11.53;;;10.40;88.70;;;;;;6157987;23;20033;-76
2021/12/16 11:54:40;;;;;;;18.92;11.15;;;10.30;89.10;;;;;;6157096;23;20025;-77
2021/12/16 11:57:13;;;;;;;21.25;11.93;;;10.30;88.80;;;;;;6156575;23;20022;-76
2021/12/16 11:59:51;;;;;;;18.13;11.43;;;10.30;89.40;;;;;;6156953;23;20081;-77
2021/12/16 12:02:32;;;;;;;21.13;11.93;;;10.20;89.10;;;;;;6161117;23;20022;-76
2021/12/16 12:05:16;;;;;;;20.27;12.70;;;10.20;89.40;;;;;;6160928;23;20022;-76
2021/12/16 12:07:45;;;;;;;19.92;12.07;;;10.20;89.50;;;;;;6162478;23;20033;-76
2021/12/16 12:10:32;;;;;;;24.35;13.05;;;10.20;89.40;;;;;;6163347;23;20014;-76
2021/12/16 12:13:02;;;;;;;22.77;12.95;;;10.20;88.80;;;;;;6166064;23;20026;-77
2021/12/16 12:15:50;;;;;;;24.90;13.63;;;10.20;89.20;;;;;;6138426;23;20053;-77
2021/12/16 12:18:35;;;;;;;26.75;13.75;;;10.20;88.80;;;;;;6161789;23;20026;-77
2021/12/16 12:21:33;;;;;;;24.05;13.07;;;10.20;89.20;;;;;;6160438;23;20471;-77
2021/12/16 12:24:21;;;;;;;28.13;13.02;;;10.10;89.00;;;;;;6160200;23;20096;-77
2021/12/16 12:26:50;;;;;;;31.77;13.95;;;10.10;89.00;;;;;;6159224;23;20049;-76
2021/12/16 12:29:21;;;;;;;20.13;13.32;;;10.10;89.00;;;;;;6159155;23;20071;-76
2021/12/16 12:31:52;;;;;;;29.25;14.27;;;10.10;89.30;;;;;;6160186;23;20383;-76
2021/12/16 12:34:20;;;;;;;24.27;13.50;;;10.10;89.40;;;;;;6161910;23;20089;-80
2021/12/16 12:36:49;;;;;;;27.45;14.13;;;10.10;89.30;;;;;;6160274;23;20022;-76
2021/12/16 12:39:20;;;;;;;26.60;14.63;;;10.00;89.00;;;;;;6158858;23;20077;-76
2021/12/16 12:41:47;;;;;;;28.77;14.52;;;10.10;89.50;;;;;;6159166;23;20036;-77
2021/12/16 12:44:16;;;;;;;30.27;14.65;;;10.10;89.50;;;;;;6133981;23;20026;-77
2021/12/16 12:46:44;;;;;;;23.85;14.20;;;10.10;89.30;;;;;;6158655;23;20786;-77
2021/12/16 12:49:15;;;;;;;25.98;14.93;;;10.00;89.30;;;;;;6158424;23;20061;-76
2021/12/16 12:51:46;;;;;;;24.63;15.18;;;9.90;88.80;;;;;;6158798;23;20034;-76
2021/12/16 12:54:22;;;;;;;27.52;14.80;;;9.90;89.00;;;;;;6133836;23;20109;-77
2021/12/16 12:56:50;;;;;;;27.88;15.50;;;9.80;89.40;;;;;;6159489;23;20109;-76
2021/12/16 12:59:17;;;;;;;24.90;15.75;;;9.80;90.10;;;;;;6158446;23;20032;-77
2021/12/16 13:01:54;;;;;;;24.77;14.90;;;9.80;89.60;;;;;;6158784;23;20355;-77
2021/12/16 13:04:42;;;;;;;29.88;16.00;;;9.80;89.60;;;;;;6156004;23;20081;-76
2021/12/16 13:07:15;;;;;;;26.10;15.85;;;9.80;89.50;;;;;;6158891;23;20038;-77
2021/12/16 13:09:50;;;;;;;27.73;16.25;;;9.90;89.80;;;;;;6134009;23;20403;-77
2021/12/16 13:12:36;;;;;;;27.65;15.50;;;9.90;89.40;;;;;;6157669;23;20498;-77
2021/12/16 13:15:21;;;;;;;25.63;16.38;;;10.00;89.70;;;;;;6157261;23;20109;-77
2021/12/16 13:23:35;;;;;;;27.42;16.17;;;10.00;89.60;;;;;;6161044;23;20535;-77
2021/12/16 13:31:30;;;;;;;28.23;16.33;;;9.90;89.00;;;;;;6157342;23;20026;-77
2021/12/16 13:33:59;;;;;;;25.73;16.05;;;9.90;89.20;;;;;;6156316;23;20105;-77
2021/12/16 13:36:56;;;;;;;33.92;16.63;;;9.90;89.60;;;;;;6158381;23;20022;-78
2021/12/16 13:39:27;;;;;;;26.80;16.13;;;10.00;89.70;;;;;;6159128;23;20388;-77
2021/12/16 13:42:12;;;;;;;26.63;15.55;;;10.00;89.80;;;;;;6158562;23;20021;-77
2021/12/16 13:44:56;;;;;;;27.92;15.68;;;10.00;89.90;;;;;;6131767;23;20105;-77
2021/12/16 14:05:39;;;;;;;27.80;17.13;;;9.90;90.00;;;;;;6063135;23;20027;-77
2021/12/16 14:08:09;;;;;;;27.23;15.85;;;9.90;90.10;;;;;;6067082;23;20122;-76
2021/12/16 14:10:47;;;;;;;25.77;16.23;;;9.90;90.10;;;;;;6066719;23;20114;-77
2021/12/16 14:31:10;;;;;;;28.05;16.60;;;9.60;90.30;;;;;;6066797;23;20027;-77
2021/12/16 14:50:21;;;;;;;31.30;17.83;;;9.10;90.50;;;;;;6160089;23;20081;-77
2021/12/16 14:52:48;;;;;;;32.10;19.00;;;9.00;90.60;;;;;;6162722;23;20069;-77
2021/12/16 14:55:18;;;;;;;30.63;19.05;;;8.90;90.70;;;;;;6159325;23;20570;-78
2021/12/16 14:57:50;;;;;;;32.10;18.15;;;8.80;90.90;;;;;;6152370;23;20022;-78
2021/12/16 15:00:36;;;;;;;35.35;19.73;;;8.80;91.00;;;;;;6130899;23;20537;-78
2021/12/16 15:03:10;;;;;;;34.05;19.20;;;8.80;90.90;;;;;;6156856;23;20030;-78
2021/12/16 15:05:47;;;;;;;30.67;16.45;;;8.70;90.80;;;;;;6128926;23;20022;-78
2021/12/16 15:08:32;;;;;;;26.40;17.50;;;8.60;90.80;;;;;;6155020;23;20068;-78
2021/12/16 15:11:02;;;;;;;32.10;18.55;;;8.60;90.80;;;;;;6128953;23;20036;-78
2021/12/16 15:13:42;;;;;;;30.70;18.23;;;8.50;90.90;;;;;;6128189;23;20103;-78
2021/12/16 15:16:46;;;;;;;23.88;16.30;;;8.50;90.80;;;;;;6155475;23;20829;-78
2021/12/16 15:44:56;;;;;;;24.50;16.60;;;7.70;91.20;;;;;;6035941;23;20051;-79
2021/12/16 15:47:24;;;;;;;30.73;17.63;;;7.60;91.40;;;;;;6037564;23;20063;-79
2021/12/16 15:49:53;;;;;;;29.73;17.42;;;7.50;91.50;;;;;;6034381;23;20034;-79
2021/12/16 15:52:20;;;;;;;44.60;24.88;;;7.40;91.50;;;;;;6036313;23;20031;-79
2021/12/16 15:54:51;;;;;;;49.65;24.90;;;7.40;91.90;;;;;;6027289;23;20227;-79
2021/12/16 15:57:23;;;;;;;193.43;25.45;;;7.30;92.40;;;;;;6035198;23;20046;-79
2021/12/16 16:00:05;;;;;;;259.70;25.13;;;7.30;93.50;;;;;;6095149;23;20023;-79
2021/12/16 16:02:35;;;;;;;317.17;30.05;;;7.20;93.90;;;;;;6097702;23;20026;-79
2021/12/16 16:05:05;;;;;;;50.78;17.15;;;7.20;94.10;;;;;;6126437;23;20115;-79
2021/12/16 16:07:59;;;;;;;34.90;17.58;;;7.20;94.40;;;;;;6099682;23;20800;-79
2021/12/16 16:10:27;;;;;;;74.68;18.42;;;7.20;94.40;;;;;;6124434;23;20031;-79
2021/12/16 16:13:10;;;;;;;171.07;20.90;;;7.20;94.00;;;;;;6123185;23;20022;-79
2021/12/16 16:15:40;;;;;;;165.90;21.38;;;7.20;93.70;;;;;;6124626;23;20031;-78
2021/12/16 16:20:47;;;;;;;235.18;25.67;;;7.20;94.00;;;;;;6126217;23;20061;-79
2021/12/16 16:23:16;;;;;;;63.33;18.40;;;7.10;94.30;;;;;;6099844;23;20029;-79
2021/12/16 16:25:46;;;;;;;32.72;16.42;;;7.20;94.30;;;;;;6125073;23;20019;-79
2021/12/16 16:28:15;;;;;;;250.13;27.98;;;7.20;94.10;;;;;;6127001;23;20495;-79
2021/12/16 16:30:52;;;;;;;105.82;20.92;;;7.20;93.90;;;;;;6156718;23;20467;-78
2021/12/16 16:33:23;;;;;;;81.90;18.60;;;7.10;94.30;;;;;;6155953;23;20671;-78
2021/12/16 16:36:01;;;;;;;85.40;20.70;;;7.20;94.30;;;;;;6154855;23;20033;-78
2021/12/16 16:38:39;;;;;;;107.00;20.40;;;7.20;94.10;;;;;;6154166;23;20105;-79
2021/12/16 16:41:12;;;;;;;33.75;17.77;;;7.20;94.00;;;;;;6129968;23;20026;-78
2021/12/16 16:43:52;;;;;;;254.65;26.92;;;7.20;94.00;;;;;;6152683;23;20026;-79
2021/12/16 16:46:38;;;;;;;54.45;17.83;;;7.20;93.70;;;;;;6144157;23;20534;-79